Terminal Aerodrome Forecast
Issued by NWS

Home | Current Version | Previous Version | Text Only | Print | Product List | Glossary On
Versions: 1 2 3 4 5 6 7 8 9 10 11 12 13 14 15 16 17 18 19
000
FTUS46 KSGX 221100
TAFCRQ
TAF
KCRQ 221123Z 2212/2312 VRB03KT P6SM BKN008
     FM221630 26009KT P6SM SKC
     FM230200 VRB04KT P6SM SCT008
     FM230700 VRB04KT P6SM OVC007=

USA.gov is the U.S. government's official web portal to all federal, state and local government web resources and services.